Time;durP1;ratioP1;P1;durP2;ratioP2;P2;SDS_P1;SDS_P2;PMS_P1;PMS_P2;Temp;Humidity;BMP_temperature;BMP_pressure;BME280_temperature;BME280_humidity;BME280_pressure;Samples;Min_cycle;Max_cycle;Signal;HPM_P1;HPM_P2
2022/05/27 00:01:30;;;;;;;4.75;3.50;;;;;;;18.60;97.98;98323.47;5120480;27;20099;-85
2022/05/27 00:03:58;;;;;;;4.72;3.53;;;;;;;18.63;97.60;98308.94;5137347;27;20037;-86
2022/05/27 00:06:24;;;;;;;5.10;3.70;;;;;;;18.61;97.48;98306.47;5137917;27;20023;-86
2022/05/27 00:08:51;;;;;;;5.07;3.53;;;;;;;18.86;95.45;98310.16;5137865;27;20018;-85
2022/05/27 00:11:17;;;;;;;6.85;3.78;;;;;;;18.96;94.45;98306.97;5137198;27;20066;-85
2022/05/27 00:13:42;;;;;;;7.70;4.43;;;;;;;18.96;94.34;98301.44;5120177;27;20023;-86
2022/05/27 00:16:09;;;;;;;5.15;3.95;;;;;;;18.83;94.86;98291.44;5137233;27;20026;-85
2022/05/27 00:18:35;;;;;;;6.88;3.85;;;;;;;18.87;94.56;98305.44;5121458;27;20042;-83
2022/05/27 00:21:01;;;;;;;5.18;3.70;;;;;;;18.70;95.73;98287.81;5140283;27;20086;-82
2022/05/27 00:23:27;;;;;;;7.38;4.22;;;;;;;18.67;96.70;98298.78;5140985;27;20019;-84
2022/05/27 00:25:52;;;;;;;6.32;4.03;;;;;;;18.64;96.49;98288.38;5158882;27;20014;-85
2022/05/27 00:28:18;;;;;;;7.70;4.22;;;;;;;18.63;97.15;98290.34;5140792;27;20052;-85
2022/05/27 00:30:43;;;;;;;6.68;4.13;;;;;;;18.39;97.71;98261.66;5140572;27;20011;-84
2022/05/27 00:33:11;;;;;;;8.00;4.03;;;;;;;18.58;97.51;98289.72;5154862;27;20011;-85
2022/05/27 00:35:38;;;;;;;9.93;4.22;;;;;;;18.58;97.55;98286.94;5137017;27;20050;-84
2022/05/27 00:38:03;;;;;;;6.00;4.18;;;;;;;18.51;98.58;98281.94;5155052;27;20060;-85
2022/05/27 00:40:38;;;;;;;5.18;3.95;;;;;;;18.36;100.00;98281.72;5137146;27;20023;-84
2022/05/27 00:43:04;;;;;;;7.60;4.30;;;;;;;18.42;100.00;98280.41;5155143;27;20028;-85
2022/05/27 00:45:33;;;;;;;5.38;3.85;;;;;;;18.30;100.00;98277.53;5135209;27;20007;-83
2022/05/27 00:47:59;;;;;;;5.00;3.35;;;;;;;18.32;100.00;98261.41;5153626;27;20108;-85
2022/05/27 00:50:32;;;;;;;8.45;3.78;;;;;;;18.39;100.00;98270.78;5135307;27;20495;-85
2022/05/27 00:53:05;;;;;;;5.20;3.80;;;;;;;18.43;100.00;98273.69;5154196;27;20038;-85
2022/05/27 00:55:35;;;;;;;6.78;4.00;;;;;;;18.55;99.00;98265.47;5129699;27;20031;-84
2022/05/27 00:58:15;;;;;;;7.40;3.78;;;;;;;18.64;98.77;98277.28;5152451;27;20031;-83
2022/05/27 01:00:41;;;;;;;8.57;4.03;;;;;;;18.67;97.81;98282.13;5151792;27;20099;-85
2022/05/27 01:03:11;;;;;;;8.20;3.65;;;;;;;18.54;98.27;98270.19;5135273;27;20027;-84
2022/05/27 01:05:40;;;;;;;6.50;3.67;;;;;;;18.57;98.24;98282.59;5151865;27;20049;-86
2022/05/27 01:08:08;;;;;;;5.65;4.10;;;;;;;18.55;98.60;98277.38;5150053;27;20574;-85
2022/05/27 01:10:49;;;;;;;5.50;3.92;;;;;;;18.54;98.18;98272.19;5133266;27;20048;-84
2022/05/27 01:13:29;;;;;;;6.03;3.83;;;;;;;18.53;98.49;98282.44;5141227;27;20403;-84
2022/05/27 01:16:01;;;;;;;6.07;3.50;;;;;;;18.50;99.07;98276.78;5142049;28;20034;-84
2022/05/27 01:21:55;;;;;;;7.38;3.83;;;;;;;18.52;98.65;98280.00;5151756;28;20038;-85
2022/05/27 01:24:39;;;;;;;6.38;3.50;;;;;;;18.39;99.41;98286.59;5152958;28;20030;-85
2022/05/27 01:27:20;;;;;;;8.02;3.88;;;;;;;18.25;100.00;98286.88;5153749;28;20100;-84
2022/05/27 01:30:26;;;;;;;5.15;3.78;;;;;;;18.19;100.00;98277.97;5154836;28;20024;-84
2022/05/27 01:33:00;;;;;;;8.35;4.03;;;;;;;18.16;100.00;98273.09;5125783;28;20082;-85
2022/05/27 01:35:44;;;;;;;7.60;4.03;;;;;;;18.18;100.00;98270.78;5154679;28;20031;-84
2022/05/27 01:38:30;;;;;;;5.15;3.83;;;;;;;18.05;100.00;98268.28;5136280;28;20063;-84
2022/05/27 01:41:08;;;;;;;5.75;3.67;;;;;;;18.02;100.00;98267.00;5151134;28;20007;-84
2022/05/27 01:43:40;;;;;;;7.65;3.85;;;;;;;17.99;100.00;98267.66;5154981;28;20030;-83
2022/05/27 01:46:16;;;;;;;5.38;3.70;;;;;;;17.99;100.00;98272.38;5158052;27;20095;-83
2022/05/27 01:49:02;;;;;;;5.70;4.05;;;;;;;17.80;100.00;98261.75;5141359;27;20103;-85
2022/05/27 01:51:34;;;;;;;;;;;;;;;17.75;100.00;98261.97;5159364;27;20028;-83
2022/05/27 01:54:18;;;;;;;6.72;3.90;;;;;;;17.66;100.00;98266.75;5140426;27;19922;-82
2022/05/27 01:56:56;;;;;;;6.55;4.13;;;;;;;17.74;100.00;98276.94;5158510;27;20414;-85
2022/05/27 01:59:32;;;;;;;5.55;4.03;;;;;;;17.82;100.00;98272.50;5141137;27;20047;-84
2022/05/27 02:02:06;;;;;;;4.80;3.42;;;;;;;17.75;100.00;98269.47;5141204;27;20023;-84
2022/05/27 02:04:54;;;;;;;5.15;3.60;;;;;;;17.73;100.00;98269.00;5158802;27;20026;-84
2022/05/27 02:07:25;;;;;;;5.22;3.50;;;;;;;17.58;100.00;98246.25;5139197;27;20058;-84
2022/05/27 02:10:00;;;;;;;5.85;3.90;;;;;;;17.70;100.00;98264.91;5155925;27;20028;-83
2022/05/27 02:12:42;;;;;;;5.05;3.80;;;;;;;17.68;100.00;98253.38;5156215;27;20031;-85
2022/05/27 02:15:13;;;;;;;5.50;3.67;;;;;;;17.65;100.00;98251.28;5134148;27;20050;-83
2022/05/27 02:17:49;;;;;;;5.60;3.83;;;;;;;17.73;100.00;98242.09;5145209;27;20019;-80
2022/05/27 02:20:22;;;;;;;5.97;3.95;;;;;;;17.74;100.00;98232.66;5155099;27;20031;-82
2022/05/27 02:22:56;;;;;;;6.32;4.10;;;;;;;17.65;100.00;98234.69;5140305;27;20007;-83
2022/05/27 02:25:26;;;;;;;4.68;3.63;;;;;;;17.54;100.00;98236.97;5150300;27;20019;-84
2022/05/27 02:28:09;;;;;;;6.63;3.95;;;;;;;17.51;100.00;98240.41;5119374;28;20091;-85
2022/05/27 02:30:37;;;;;;;10.93;4.38;;;;;;;17.39;100.00;98234.78;5118066;28;20054;-84
2022/05/27 02:35:59;;;;;;;10.02;4.20;;;;;;;17.34;100.00;98231.41;5135560;28;20046;-84
2022/05/27 02:38:29;;;;;;;6.65;4.30;;;;;;;17.26;100.00;98235.03;5135562;28;20088;-85
2022/05/27 02:41:19;;;;;;;8.07;4.47;;;;;;;17.23;100.00;98247.53;5136117;28;20083;-82
2022/05/27 02:43:54;;;;;;;6.15;4.40;;;;;;;17.28;100.00;98238.25;5135770;28;20468;-81
2022/05/27 02:46:37;;;;;;;7.35;3.92;;;;;;;17.35;100.00;98231.06;5117259;28;20034;-84
2022/05/27 02:49:12;;;;;;;6.18;4.35;;;;;;;17.36;100.00;98231.84;5134898;28;20028;-84
2022/05/27 02:52:04;;;;;;;10.55;4.35;;;;;;;17.35;100.00;98231.06;5117947;28;20099;-84
2022/05/27 02:54:39;;;;;;;5.22;4.20;;;;;;;17.33;100.00;98238.06;5134774;28;20032;-84
2022/05/27 02:57:13;;;;;;;6.55;4.13;;;;;;;17.27;100.00;98242.16;5134127;28;20024;-85
2022/05/27 02:59:40;;;;;;;5.13;4.00;;;;;;;17.24;100.00;98251.94;5135730;28;20116;-83
2022/05/27 03:02:08;;;;;;;4.97;3.70;;;;;;;17.33;100.00;98251.88;5117168;28;20039;-83
2022/05/27 03:04:39;;;;;;;7.10;4.20;;;;;;;17.28;100.00;98249.31;5136410;28;20024;-83
2022/05/27 03:07:35;;;;;;;6.90;4.00;;;;;;;17.32;100.00;98247.53;5121131;28;20043;-86
2022/05/27 03:10:13;;;;;;;8.90;4.53;;;;;;;17.20;100.00;98245.44;5135995;28;20061;-81
2022/05/27 03:13:19;;;;;;;6.13;4.65;;;;;;;17.08;100.00;98240.59;5124918;27;20023;-82
2022/05/27 03:16:13;;;;;;;5.70;4.15;;;;;;;17.07;100.00;98247.25;5135112;27;20023;-83
2022/05/27 03:19:03;;;;;;;5.68;3.97;;;;;;;17.21;100.00;98241.53;5153493;27;20061;-84
2022/05/27 03:21:54;;;;;;;6.15;4.80;;;;;;;17.23;100.00;98243.97;5134830;27;20050;-85
2022/05/27 03:24:26;;;;;;;9.50;5.10;;;;;;;17.20;100.00;98239.13;5150355;27;20556;-84
2022/05/27 03:27:10;;;;;;;6.57;4.70;;;;;;;17.11;100.00;98237.19;5152523;27;20023;-84
2022/05/27 03:29:56;;;;;;;5.03;3.85;;;;;;;17.14;100.00;98246.75;5134459;27;20030;-83
2022/05/27 03:32:35;;;;;;;5.50;3.88;;;;;;;17.20;100.00;98244.66;5134371;27;20034;-81
2022/05/27 03:35:13;;;;;;;6.55;4.70;;;;;;;16.99;100.00;98250.06;5134785;27;20027;-84
2022/05/27 03:37:57;;;;;;;6.25;4.40;;;;;;;17.00;100.00;98252.50;5134977;27;20014;-82
2022/05/27 03:40:26;;;;;;;6.05;4.63;;;;;;;17.10;100.00;98268.72;5134169;27;20038;-84
2022/05/27 03:42:53;;;;;;;6.85;4.47;;;;;;;17.17;100.00;98256.34;5134140;27;20031;-84
2022/05/27 03:45:22;;;;;;;6.32;5.03;;;;;;;17.25;100.00;98261.84;5151645;27;20027;-83
2022/05/27 03:47:49;;;;;;;5.70;4.53;;;;;;;17.23;100.00;98246.75;5132011;27;20039;-85
2022/05/27 03:50:18;;;;;;;11.45;4.97;;;;;;;17.34;100.00;98248.00;5133152;27;20026;-83
2022/05/27 03:52:47;;;;;;;6.85;4.45;;;;;;;17.42;100.00;98252.66;5151893;27;20071;-82
2022/05/27 03:55:15;;;;;;;7.22;5.13;;;;;;;17.41;100.00;98240.81;5133948;27;20027;-82
2022/05/27 03:57:41;;;;;;;12.35;5.50;;;;;;;17.51;100.00;98250.69;5130258;27;20025;-82
2022/05/27 04:00:09;;;;;;;7.30;4.47;;;;;;;17.58;100.00;98254.56;5143252;27;20359;-83
2022/05/27 04:02:36;;;;;;;6.93;4.63;;;;;;;17.59;100.00;98249.84;5137270;27;20084;-82
2022/05/27 04:05:01;;;;;;;8.40;5.32;;;;;;;17.70;100.00;98253.84;5141195;27;20142;-84
2022/05/27 04:07:27;;;;;;;7.53;5.20;;;;;;;17.73;100.00;98242.09;5125488;28;20118;-81
2022/05/27 04:09:52;;;;;;;11.68;5.32;;;;;;;17.80;100.00;98252.66;5124679;27;20027;-81
2022/05/27 04:12:19;;;;;;;11.50;4.93;;;;;;;17.88;100.00;98246.25;5144871;27;20038;-83
2022/05/27 04:14:49;;;;;;;11.10;4.93;;;;;;;17.96;100.00;98254.50;5128232;27;20487;-81
2022/05/27 04:17:32;;;;;;;10.63;5.13;;;;;;;17.98;100.00;98252.19;5147033;27;20106;-81
2022/05/27 04:20:12;;;;;;;10.40;5.60;;;;;;;18.11;100.00;98253.09;5141069;27;20019;-80
2022/05/27 04:22:39;;;;;;;7.28;4.65;;;;;;;18.26;100.00;98257.22;5114624;27;20032;-84
2022/05/27 04:25:05;;;;;;;7.40;4.30;;;;;;;18.39;100.00;98253.34;5149763;27;20043;-83
2022/05/27 04:27:31;;;;;;;12.40;5.32;;;;;;;18.36;100.00;98241.00;5150638;27;20031;-84
2022/05/27 04:29:56;;;;;;;6.28;4.53;;;;;;;18.64;100.00;98253.16;5134949;27;20092;-82
2022/05/27 04:32:23;;;;;;;6.03;4.38;;;;;;;18.74;100.00;98249.16;5147467;27;20068;-82
2022/05/27 04:34:49;;;;;;;6.88;4.50;;;;;;;18.86;100.00;98253.94;5131670;27;20030;-82
2022/05/27 04:37:16;;;;;;;5.80;4.35;;;;;;;18.90;100.00;98258.44;5149958;27;20035;-81
2022/05/27 04:39:41;;;;;;;6.30;3.95;;;;;;;18.81;100.00;98238.31;5150228;27;20038;-82
2022/05/27 04:42:07;;;;;;;8.32;4.55;;;;;;;18.88;100.00;98243.31;5126003;27;20110;-82
2022/05/27 04:44:33;;;;;;;8.05;4.70;;;;;;;18.85;100.00;98242.03;5150489;27;20023;-84
2022/05/27 04:46:59;;;;;;;7.30;4.55;;;;;;;18.89;100.00;98245.72;5125323;27;20058;-83
2022/05/27 04:52:09;;;;;;;8.18;4.72;;;;;;;19.02;100.00;98239.06;5130335;27;20042;-84
2022/05/27 04:54:35;;;;;;;8.02;4.90;;;;;;;19.06;100.00;98231.69;5134120;27;20019;-83
2022/05/27 04:57:00;;;;;;;10.13;5.32;;;;;;;19.02;100.00;98227.97;5132045;27;20027;-77
2022/05/27 04:59:26;;;;;;;7.45;4.88;;;;;;;18.97;100.00;98250.38;5128707;28;20039;-82
2022/05/27 05:01:51;;;;;;;9.45;5.20;;;;;;;18.71;100.00;98231.25;5094783;28;20058;-74
2022/05/27 05:04:17;;;;;;;10.50;6.10;;;;;;;18.81;100.00;98256.91;5110931;28;20030;-73
2022/05/27 05:06:43;;;;;;;9.43;5.55;;;;;;;18.86;100.00;98251.94;5096089;27;20071;-75
2022/05/27 05:09:09;;;;;;;10.65;5.47;;;;;;;18.81;100.00;98263.28;5113488;28;20035;-75
2022/05/27 05:11:34;;;;;;;11.23;6.18;;;;;;;18.80;100.00;98266.38;5131499;27;20031;-74
2022/05/27 05:14:00;;;;;;;6.47;4.70;;;;;;;18.89;100.00;98264.34;5131659;27;20019;-75
2022/05/27 05:16:26;;;;;;;7.25;5.07;;;;;;;18.82;100.00;98275.16;5104064;28;20030;-75
2022/05/27 05:18:52;;;;;;;6.70;5.10;;;;;;;18.85;100.00;98267.00;5118340;28;20023;-77
2022/05/27 05:21:17;;;;;;;8.85;5.55;;;;;;;18.85;100.00;98266.19;5119140;28;20024;-75
2022/05/27 05:23:43;;;;;;;11.25;5.45;;;;;;;18.92;100.00;98267.22;5120768;28;20110;-75
2022/05/27 05:26:09;;;;;;;7.07;5.50;;;;;;;18.89;100.00;98269.88;5120390;28;20034;-76
2022/05/27 05:28:34;;;;;;;6.07;4.88;;;;;;;19.02;100.00;98266.78;5118737;28;20031;-75
2022/05/27 05:31:00;;;;;;;7.28;5.63;;;;;;;19.24;100.00;98268.34;5120731;28;20023;-75
2022/05/27 05:33:25;;;;;;;7.50;5.47;;;;;;;19.34;100.00;98278.19;5119167;28;20054;-76
2022/05/27 05:35:51;;;;;;;7.80;5.07;;;;;;;19.40;100.00;98271.28;5117226;28;20058;-75
2022/05/27 05:38:17;;;;;;;13.27;5.10;;;;;;;19.53;100.00;98265.41;5131737;28;20023;-76
2022/05/27 05:40:43;;;;;;;6.55;4.80;;;;;;;19.66;100.00;98263.44;5121789;28;20024;-75
2022/05/27 05:43:09;;;;;;;6.93;4.72;;;;;;;19.74;98.70;98273.63;5122641;28;20038;-76
2022/05/27 05:45:34;;;;;;;7.70;5.15;;;;;;;19.99;97.44;98277.19;5113337;28;20031;-74
2022/05/27 05:48:00;;;;;;;12.18;4.55;;;;;;;20.12;95.40;98287.13;5110554;28;20049;-77
2022/05/27 05:50:27;;;;;;;7.32;4.30;;;;;;;20.15;94.12;98284.47;5115907;28;20016;-85
2022/05/27 05:52:53;;;;;;;8.77;4.72;;;;;;;20.21;94.67;98274.72;5099108;28;20034;-86
2022/05/27 05:55:19;;;;;;;7.15;4.72;;;;;;;20.38;93.37;98289.53;5115828;28;20091;-84
2022/05/27 05:57:47;;;;;;;9.00;4.57;;;;;;;20.56;92.54;98285.31;5115868;28;20024;-80
2022/05/27 06:00:17;;;;;;;5.70;4.60;;;;;;;20.68;90.71;98288.03;5094785;28;20047;-76
2022/05/27 06:02:42;;;;;;;8.05;4.38;;;;;;;20.71;89.36;98288.16;5092788;28;20422;-79
2022/05/27 06:05:09;;;;;;;7.35;4.35;;;;;;;20.79;88.95;98286.41;5113235;28;20027;-77
2022/05/27 06:07:34;;;;;;;10.50;4.22;;;;;;;20.73;88.12;98283.06;5136724;28;20050;-80
2022/05/27 06:10:01;;;;;;;7.38;4.70;;;;;;;20.66;89.22;98284.81;5118217;28;20019;-80
2022/05/27 06:12:27;;;;;;;7.63;4.82;;;;;;;20.61;88.69;98277.53;5128752;28;20024;-80
2022/05/27 06:14:56;;;;;;;7.25;5.13;;;;;;;20.69;88.90;98295.22;5128798;27;20117;-81
2022/05/27 06:17:22;;;;;;;7.90;4.90;;;;;;;20.72;87.32;98283.41;5130292;28;20027;-82
2022/05/27 06:19:48;;;;;;;8.20;4.53;;;;;;;20.80;84.70;98276.88;5113153;28;20065;-84
2022/05/27 06:22:13;;;;;;;6.47;4.30;;;;;;;20.79;84.65;98284.44;5113465;28;20015;-83
2022/05/27 06:24:39;;;;;;;6.78;4.50;;;;;;;20.80;84.65;98285.22;5126315;28;20102;-81
2022/05/27 06:27:06;;;;;;;8.43;4.90;;;;;;;20.81;84.23;98289.63;5136519;28;20436;-82
2022/05/27 06:35:14;;;;;;;7.88;4.97;;;;;;;20.76;83.85;98296.25;5111111;27;20112;-81
2022/05/27 06:37:39;;;;;;;8.13;4.85;;;;;;;20.76;83.67;98304.59;5144575;27;20019;-83
2022/05/27 06:40:06;;;;;;;6.40;4.72;;;;;;;20.82;83.51;98294.84;5126010;27;20027;-82
2022/05/27 06:42:31;;;;;;;7.22;4.50;;;;;;;20.95;82.52;98292.81;5124049;27;20113;-78
2022/05/27 06:44:57;;;;;;;7.28;4.90;;;;;;;20.81;82.69;98296.00;5134254;27;20106;-78
2022/05/27 06:47:22;;;;;;;7.90;4.88;;;;;;;20.77;82.72;98286.72;5115791;27;20472;-79
2022/05/27 06:49:48;;;;;;;7.13;4.72;;;;;;;20.80;82.72;98296.34;5140536;27;20030;-83
2022/05/27 06:52:15;;;;;;;7.15;4.70;;;;;;;20.88;82.26;98291.78;5135195;28;20044;-85
2022/05/27 06:54:41;;;;;;;8.40;5.18;;;;;;;20.90;81.91;98283.91;5134487;28;20106;-84
2022/05/27 06:57:08;;;;;;;6.93;5.00;;;;;;;21.10;81.17;98294.03;5107381;28;20084;-82
2022/05/27 06:59:34;;;;;;;9.55;4.82;;;;;;;21.09;80.90;98292.41;5130599;27;20034;-82
2022/05/27 07:02:00;;;;;;;7.03;4.72;;;;;;;21.03;80.78;98272.38;5122639;27;20023;-81
2022/05/27 07:04:26;;;;;;;6.93;5.28;;;;;;;21.14;80.87;98283.81;5122034;27;20058;-81
2022/05/27 07:06:52;;;;;;;8.15;4.72;;;;;;;21.12;80.40;98284.16;5122753;27;20076;-81
2022/05/27 07:09:20;;;;;;;10.00;4.75;;;;;;;21.21;79.95;98282.03;5124446;27;20043;-81
2022/05/27 07:11:48;;;;;;;8.07;5.40;;;;;;;21.21;80.54;98284.00;5124439;27;20091;-82
2022/05/27 07:14:15;;;;;;;12.00;5.03;;;;;;;21.39;79.04;98284.47;5124481;27;20026;-83
2022/05/27 07:16:42;;;;;;;10.43;4.65;;;;;;;21.39;78.83;98271.38;5124530;27;20499;-82
2022/05/27 07:19:08;;;;;;;7.45;5.30;;;;;;;21.52;78.50;98277.66;5142098;27;20026;-81
2022/05/27 07:21:39;;;;;;;9.73;5.22;;;;;;;21.40;78.82;98275.75;5143625;27;20015;-80
2022/05/27 07:24:09;;;;;;;10.68;5.22;;;;;;;21.60;78.14;98282.22;5146316;27;20019;-82
2022/05/27 07:26:34;;;;;;;10.18;5.63;;;;;;;21.78;76.74;98280.69;5147801;27;20024;-81
2022/05/27 07:29:00;;;;;;;6.60;4.97;;;;;;;22.00;76.09;98271.72;5124726;27;20030;-82
2022/05/27 07:31:25;;;;;;;8.55;4.85;;;;;;;22.24;75.01;98284.63;5124711;27;20105;-84
2022/05/27 07:33:51;;;;;;;13.30;5.95;;;;;;;22.30;74.05;98278.38;5121066;27;20477;-82
2022/05/27 07:36:16;;;;;;;8.85;5.57;;;;;;;22.53;73.57;98278.47;5115442;27;20031;-81
2022/05/27 07:38:41;;;;;;;14.55;5.28;;;;;;;22.66;73.71;98280.00;5113523;27;20453;-81
2022/05/27 07:41:07;;;;;;;11.95;6.57;;;;;;;22.70;72.41;98269.72;5127378;27;20047;-82
2022/05/27 07:43:33;;;;;;;7.10;5.03;;;;;;;22.98;71.35;98272.28;5107870;27;20068;-80
2022/05/27 07:45:59;;;;;;;12.93;5.50;;;;;;;23.07;71.06;98266.44;5110150;27;20039;-82
2022/05/27 07:48:25;;;;;;;8.88;4.72;;;;;;;23.18;70.64;98265.47;5109029;27;20060;-81
2022/05/27 07:50:52;;;;;;;8.02;5.20;;;;;;;23.38;69.44;98263.44;5108040;27;20012;-81
2022/05/27 07:53:19;;;;;;;10.77;5.18;;;;;;;23.48;69.36;98257.28;5112959;28;20051;-81
2022/05/27 07:55:44;;;;;;;8.68;4.55;;;;;;;23.65;69.13;98250.38;5109845;27;20011;-80
2022/05/27 07:58:10;;;;;;;12.23;5.38;;;;;;;23.72;68.71;98242.91;5105402;27;20031;-81
2022/05/27 08:00:37;;;;;;;12.70;5.68;;;;;;;23.82;68.18;98233.88;5110966;27;20015;-80
2022/05/27 08:03:04;;;;;;;7.60;5.25;;;;;;;24.14;66.55;98228.81;5107752;27;20046;-80
2022/05/27 08:05:30;;;;;;;10.05;4.95;;;;;;;24.11;65.34;98229.56;5108681;28;20032;-82
2022/05/27 08:07:57;;;;;;;9.02;4.65;;;;;;;24.16;64.71;98232.03;5108259;27;20044;-80
2022/05/27 08:10:26;;;;;;;7.72;4.93;;;;;;;24.28;65.08;98234.59;5091515;27;20034;-79
2022/05/27 08:12:51;;;;;;;8.63;5.10;;;;;;;24.44;64.27;98226.81;5106762;27;20023;-79
2022/05/27 08:15:17;;;;;;;8.88;4.38;;;;;;;24.77;64.17;98222.44;5105259;28;20037;-82
2022/05/27 08:17:43;;;;;;;8.57;4.90;;;;;;;25.25;63.34;98240.19;5129953;27;20047;-81
2022/05/27 08:20:11;;;;;;;9.50;5.07;;;;;;;25.51;61.51;98229.66;5109289;27;20039;-81
2022/05/27 08:22:37;;;;;;;11.43;4.80;;;;;;;26.07;58.45;98234.06;5126764;27;20484;-82
2022/05/27 08:25:03;;;;;;;17.30;4.80;;;;;;;26.35;57.92;98236.25;5111756;28;20035;-78
2022/05/27 08:27:28;;;;;;;6.18;4.90;;;;;;;26.68;57.51;98229.63;5111987;28;20531;-76
2022/05/27 08:29:54;;;;;;;14.02;4.93;;;;;;;26.94;55.30;98224.53;5113603;28;20058;-77
2022/05/27 08:32:19;;;;;;;15.60;6.13;;;;;;;27.36;55.12;98226.63;5118495;27;20430;-75
2022/05/27 08:40:16;;;;;;;9.88;4.97;;;;;;;28.65;50.60;98218.50;5123104;27;20029;-75
2022/05/27 08:42:54;;;;;;;10.82;4.35;;;;;;;28.84;49.83;98210.75;5127527;27;20422;-75
2022/05/27 08:45:26;;;;;;;11.43;4.43;;;;;;;29.14;49.04;98210.97;5121750;27;20015;-76
2022/05/27 08:47:59;;;;;;;8.93;4.22;;;;;;;29.09;49.13;98191.69;5121258;27;20034;-74
2022/05/27 08:50:29;;;;;;;8.75;4.13;;;;;;;29.48;48.44;98194.25;5119644;27;20027;-74
2022/05/27 08:53:16;;;;;;;6.55;4.28;;;;;;;29.29;47.71;98201.25;5118813;27;20480;-72
2022/05/27 08:59:26;;;;;;;6.68;3.97;;;;;;;28.93;49.58;98197.03;5119757;27;20034;-74
2022/05/27 09:01:36;;;;;;;7.90;4.18;;;;;;;28.61;49.98;98195.13;5115718;27;20035;-76
2022/05/27 09:04:09;;;;;;;10.45;4.47;;;;;;;28.96;50.16;98199.81;5124009;27;20114;-74
2022/05/27 09:07:06;;;;;;;7.80;4.13;;;;;;;29.10;49.63;98191.28;5118953;27;20055;-74
2022/05/27 09:09:32;;;;;;;4.60;3.40;;;;;;;29.32;49.23;98185.53;5124292;27;20035;-74
2022/05/27 09:12:34;;;;;;;7.15;3.60;;;;;;;29.51;48.73;98197.06;5120191;27;20465;-74
2022/05/27 09:15:15;;;;;;;8.85;4.30;;;;;;;29.96;48.06;98188.63;5120464;27;20026;-74
2022/05/27 09:17:44;;;;;;;7.70;3.63;;;;;;;30.19;46.97;98188.81;5131634;28;20031;-73
2022/05/27 09:20:21;;;;;;;4.63;3.65;;;;;;;29.93;46.90;98184.63;5112889;28;20095;-76
2022/05/27 09:23:08;;;;;;;10.07;3.80;;;;;;;29.89;47.32;98188.69;5128267;28;20040;-75
2022/05/27 09:25:50;;;;;;;4.80;3.70;;;;;;;29.07;48.90;98180.06;5099562;28;20039;-76
2022/05/27 09:28:44;;;;;;;8.43;3.97;;;;;;;28.88;49.82;98175.72;5123642;28;20031;-74
2022/05/27 09:31:14;;;;;;;7.32;4.25;;;;;;;28.61;52.15;98166.97;5131801;28;20024;-76
2022/05/27 09:33:41;;;;;;;6.63;4.35;;;;;;;29.16;50.57;98171.94;5128997;28;20200;-77
2022/05/27 09:36:17;;;;;;;5.78;4.00;;;;;;;28.46;50.55;98167.44;5093638;28;20032;-77
2022/05/27 09:38:52;;;;;;;6.63;3.53;;;;;;;28.79;50.62;98163.31;5125127;28;20035;-75
2022/05/27 09:41:33;;;;;;;9.82;4.40;;;;;;;29.06;49.96;98164.34;5130745;28;20464;-75
2022/05/27 09:44:24;;;;;;;10.68;3.92;;;;;;;29.19;49.72;98163.47;5130885;28;20118;-74
2022/05/27 09:46:50;;;;;;;8.50;4.00;;;;;;;29.31;49.13;98165.00;5130864;28;20027;-75
2022/05/27 09:49:16;;;;;;;6.30;3.92;;;;;;;29.29;49.46;98161.78;5130600;28;20031;-74
2022/05/27 09:51:41;;;;;;;4.28;3.42;;;;;;;29.46;48.51;98160.84;5130636;28;20387;-75
2022/05/27 09:54:29;;;;;;;6.90;3.90;;;;;;;29.40;48.04;98159.69;5115088;28;20432;-75
2022/05/27 09:57:13;;;;;;;7.88;4.20;;;;;;;28.78;49.33;98158.88;5109932;28;20020;-75
2022/05/27 09:59:43;;;;;;;5.97;3.97;;;;;;;28.38;50.74;98146.97;5119856;28;20059;-75
2022/05/27 10:02:20;;;;;;;8.70;4.28;;;;;;;28.44;50.65;98134.09;5120971;28;20038;-74
2022/05/27 10:04:50;;;;;;;13.68;5.15;;;;;;;28.06;51.63;98135.03;5119560;27;20028;-75
2022/05/27 10:07:28;;;;;;;5.32;4.15;;;;;;;28.46;51.13;98123.22;5120974;27;20058;-75
2022/05/27 10:09:54;;;;;;;6.88;3.90;;;;;;;28.38;50.89;98129.28;5122726;27;20019;-76
2022/05/27 10:12:34;;;;;;;7.20;4.18;;;;;;;28.11;51.15;98123.34;5124536;27;20734;-75
2022/05/27 10:14:59;;;;;;;6.72;4.07;;;;;;;27.93;51.89;98114.16;5124619;27;20019;-76
2022/05/27 10:17:37;;;;;;;7.82;4.30;;;;;;;28.48;50.56;98117.97;5123659;27;20519;-74
2022/05/27 10:20:31;;;;;;;8.38;4.30;;;;;;;28.85;49.29;98111.75;5122917;27;20391;-74
2022/05/27 10:23:07;;;;;;;10.90;4.60;;;;;;;28.48;49.90;98103.09;5120855;27;20100;-75
2022/05/27 10:25:43;;;;;;;7.80;3.58;;;;;;;28.89;49.55;98097.63;5125791;27;20015;-76
2022/05/27 10:28:21;;;;;;;6.15;4.18;;;;;;;28.77;49.40;98092.50;5134361;27;20031;-76
2022/05/27 10:31:04;;;;;;;6.13;3.92;;;;;;;28.63;49.51;98082.88;5134975;27;20399;-75
2022/05/27 10:33:42;;;;;;;6.75;3.80;;;;;;;28.38;50.14;98073.78;5126764;27;20019;-75
2022/05/27 10:36:39;;;;;;;5.50;4.10;;;;;;;28.44;49.85;98065.72;5125792;27;20039;-74
2022/05/27 10:39:12;;;;;;;6.50;3.92;;;;;;;28.28;50.49;98059.78;5123086;27;20084;-75
2022/05/27 10:41:53;;;;;;;8.10;5.15;;;;;;;28.26;50.77;98054.53;5126044;27;20071;-77
2022/05/27 10:44:27;;;;;;;5.60;3.60;;;;;;;28.19;50.41;98046.16;5128971;27;20035;-74
2022/05/27 10:46:57;;;;;;;10.20;4.47;;;;;;;27.88;51.44;98049.88;5131682;27;20084;-74
2022/05/27 10:49:53;;;;;;;6.22;3.20;;;;;;;27.90;51.67;98041.81;5129495;27;20047;-75
2022/05/27 10:52:37;;;;;;;7.72;3.70;;;;;;;27.89;51.27;98046.66;5125634;27;20046;-74
2022/05/27 10:55:23;;;;;;;6.47;3.92;;;;;;;27.62;50.25;98037.91;5138694;27;20031;-73
2022/05/27 11:04:06;;;;;;;9.95;3.58;;;;;;;27.79;51.52;98029.78;5122865;27;20095;-83
2022/05/27 11:07:04;;;;;;;6.63;3.90;;;;;;;27.97;51.47;98022.13;5117190;28;20098;-75
2022/05/27 11:09:51;;;;;;;6.75;3.70;;;;;;;28.04;50.22;98025.69;5114723;28;20067;-81
2022/05/27 11:15:10;;;;;;;7.47;3.80;;;;;;;28.11;50.52;98017.25;5114357;28;20051;-71
2022/05/27 11:15:35;;;;;;;6.88;4.05;;;;;;;28.18;49.39;98013.59;5098812;28;20039;-73
2022/05/27 11:18:31;;;;;;;5.63;3.47;;;;;;;28.04;49.59;98008.00;5113407;28;20038;-73
2022/05/27 11:20:57;;;;;;;5.65;3.90;;;;;;;28.02;48.56;98008.41;5113586;28;20024;-76
2022/05/27 11:23:47;;;;;;;7.57;3.70;;;;;;;28.08;48.63;98008.81;5095153;28;20392;-78
2022/05/27 11:26:37;;;;;;;7.20;3.78;;;;;;;28.02;48.99;97999.16;5113179;28;20032;-76
2022/05/27 11:29:26;;;;;;;7.05;3.38;;;;;;;28.17;48.58;97984.66;5113415;28;20073;-75
2022/05/27 11:32:01;;;;;;;6.88;3.75;;;;;;;28.30;48.44;97984.97;5112817;28;20038;-74
2022/05/27 11:35:10;;;;;;;6.47;3.58;;;;;;;28.27;47.14;97979.34;5095552;28;20019;-76
2022/05/27 11:37:49;;;;;;;13.15;3.85;;;;;;;28.36;46.15;97965.63;5114681;27;20047;-75
2022/05/27 11:40:25;;;;;;;9.43;4.10;;;;;;;28.45;44.28;97965.97;5114685;27;20042;-76
2022/05/27 11:43:18;;;;;;;9.45;3.50;;;;;;;28.46;45.41;97957.13;5120665;27;20035;-74
2022/05/27 11:46:17;;;;;;;8.07;3.47;;;;;;;28.43;45.45;97949.50;5122523;27;20019;-74
2022/05/27 11:49:24;;;;;;;6.05;3.40;;;;;;;28.52;44.67;97947.00;5124613;27;20081;-73
2022/05/27 11:52:27;;;;;;;4.80;3.30;;;;;;;28.17;45.08;97938.81;5129134;27;20499;-74
2022/05/27 11:55:23;;;;;;;6.13;3.33;;;;;;;27.59;46.39;97925.47;5113056;27;20062;-76
2022/05/27 11:57:52;;;;;;;8.48;3.88;;;;;;;27.49;46.95;97918.69;5114763;27;20042;-76
2022/05/27 12:00:21;;;;;;;10.93;3.75;;;;;;;27.56;47.00;97910.22;5114658;27;20113;-74
2022/05/27 12:02:57;;;;;;;7.28;3.30;;;;;;;27.67;45.76;97904.53;5114389;27;20102;-73
2022/05/27 12:05:40;;;;;;;6.63;3.25;;;;;;;27.74;46.34;97903.69;5114706;27;20019;-75
2022/05/27 12:08:22;;;;;;;8.13;3.55;;;;;;;27.73;45.80;97908.50;5114293;27;20135;-75
2022/05/27 12:10:54;;;;;;;8.05;3.55;;;;;;;27.35;47.00;97893.41;5132804;27;20462;-75
2022/05/27 12:13:54;;;;;;;7.90;3.63;;;;;;;27.44;46.69;97907.06;5134013;27;20468;-75
2022/05/27 12:16:27;;;;;;;5.15;2.88;;;;;;;27.57;46.91;97900.56;5072133;28;20093;-74
2022/05/27 12:19:07;;;;;;;13.23;4.20;;;;;;;27.73;46.63;97896.47;5112526;28;20030;-73
2022/05/27 12:21:45;;;;;;;5.53;3.45;;;;;;;27.77;47.32;97880.38;5112016;28;20080;-73
2022/05/27 12:24:17;;;;;;;6.25;3.38;;;;;;;28.02;45.94;97875.41;5112119;28;20440;-73
2022/05/27 12:26:43;;;;;;;6.47;3.40;;;;;;;28.13;45.95;97876.94;5113498;27;20050;-75